East Ridge, TN (37412)

2:27 PM EDT on October 30, 2014 (GMT -0400)
Lazard St | Change Station
CLOSE
Current Station
Personal Weather Station
Location: East Ridge, TN
Elevation: 722 ft
Nearby Weather Stations

Elev 722 ft 34.99 °N, 85.24 °W | Updated 19 seconds ago

Clear
Clear
64.4 °F
Feels Like 64.4 °F
N
1.0
Wind Variable Wind from NNW
Gusts 5.0 mph

Today
High -- | Low -- °F
--% Chance of Precip.
Yesterday
High -- | Low -- °F
Precip. -- in
8:00 AM 6:48 PM
Waxing Crescent, 46% visible
Pressure 30.06 in
Visibility 10.0 miles
Clouds Clear
Dew Point 41 °F
Humidity 43%
Rainfall 0.00 in
Snow Depth Not available.
UV 5 out of 12
Pollen 1.20 out of 12
Air Quality Not available.
Flu Activity Not available.
METAR KCHA 301753Z 35004KT 10SM CLR 17/03 A3006 RMK AO2 SLP179 T01720033 10178 20044 58023

More Conditions Fewer Conditions

Pressure 30.06 in
Visibility 10.0 miles
Clouds Clear
Dew Point 41 °F
Humidity 43%
Rainfall 0.00 in
Snow Depth Not available.
UV 5 out of 12
Pollen 1.20 out of 12
Air Quality Not available.
Flu Activity Not available.
METAR KCHA 301753Z 35004KT 10SM CLR 17/03 A3006 RMK AO2 SLP179 T01720033 10178 20044 58023

More Conditions Fewer Conditions

10-Day Weather Forecast

Almanac

Astronomy

Oct. 30, 2014 Rise Set
Actual Time
Civil Twilight
Nautical Twilight
Astronomical Twilight
Moon
Length of Visible Light
Length of Day
Tomorrow will be .
, % of the Moon is Illuminated

Today's Extremes

State Highs State Lows

Community

WunderPhotos

Upload Photos

1,766,419 photos uploaded!

WunderBlogs® & News

Nearby

Air Quality

  Air Quality AQ Index Pollutant
Not available.

Snow Depth

Station Depth Elevation

Earthquake Activity

City Distance Mag. Time & Date
Minimum magnitude displayed is 2.5.

Coastal Water Temperatures

Place Temperature

Nearby Weather Stations